Wetterdaten: Montag, 08.02.2010
Datum Zeit Temp. A. Feuchte A. Luftdruck Regen Wind Richtung Richtung Sonnenschein UV Solar Windben
08.02.2010 00:00 -2,1 C 84 % 1018,0 hPa 0,0 mm 4,8 km/h (1 Bft) O 90 0 min 0 UV-I 0 W/m 14,5 km/h (3 Bft)
08.02.2010 00:10 -2,1 C 84 % 1017,9 hPa 0,0 mm 4,8 km/h (1 Bft) O-SO 112 0 min 0 UV-I 0 W/m 14,5 km/h (3 Bft)
08.02.2010 00:20 -2,2 C 84 % 1017,8 hPa 0,0 mm 3,2 km/h (1 Bft) O 90 0 min 0 UV-I 0 W/m 11,3 km/h (2 Bft)
08.02.2010 00:30 -2,2 C 83 % 1017,8 hPa 0,0 mm 6,4 km/h (2 Bft) O-SO 112 0 min 0 UV-I 0 W/m 19,3 km/h (3 Bft)
08.02.2010 00:40 -2,3 C 83 % 1017,8 hPa 0,0 mm 3,2 km/h (1 Bft) O-SO 112 0 min 0 UV-I 0 W/m 9,7 km/h (2 Bft)
08.02.2010 00:50 -2,4 C 83 % 1017,8 hPa 0,0 mm 3,2 km/h (1 Bft) O 90 0 min 0 UV-I 0 W/m 9,7 km/h (2 Bft)
08.02.2010 01:00 -2,4 C 83 % 1017,7 hPa 0,0 mm 3,2 km/h (1 Bft) O-SO 112 0 min 0 UV-I 0 W/m 11,3 km/h (2 Bft)
08.02.2010 01:10 -2,4 C 83 % 1017,8 hPa 0,0 mm 4,8 km/h (1 Bft) O-SO 112 0 min 0 UV-I 0 W/m 11,3 km/h (2 Bft)
08.02.2010 01:20 -2,5 C 83 % 1017,7 hPa 0,0 mm 3,2 km/h (1 Bft) O-SO 112 0 min 0 UV-I 0 W/m 11,3 km/h (2 Bft)
08.02.2010 01:30 -2,6 C 83 % 1017,7 hPa 0,0 mm 4,8 km/h (1 Bft) O-SO 112 0 min 0 UV-I 0 W/m 16,1 km/h (3 Bft)
08.02.2010 01:40 -2,7 C 83 % 1017,6 hPa 0,0 mm 3,2 km/h (1 Bft) O-SO 112 0 min 0 UV-I 0 W/m 9,7 km/h (2 Bft)
08.02.2010 01:50 -2,8 C 83 % 1017,6 hPa 0,0 mm 4,8 km/h (1 Bft) O 90 0 min 0 UV-I 0 W/m 12,9 km/h (3 Bft)
08.02.2010 02:00 -2,8 C 83 % 1017,6 hPa 0,0 mm 3,2 km/h (1 Bft) O 90 0 min 0 UV-I 0 W/m 8,0 km/h (2 Bft)
08.02.2010 02:10 -2,9 C 83 % 1017,6 hPa 0,0 mm 4,8 km/h (1 Bft) O-SO 112 0 min 0 UV-I 0 W/m 17,7 km/h (3 Bft)
08.02.2010 02:20 -3,1 C 82 % 1017,6 hPa 0,0 mm 6,4 km/h (2 Bft) O-SO 112 0 min 0 UV-I 0 W/m 16,1 km/h (3 Bft)
08.02.2010 02:30 -3,2 C 82 % 1017,6 hPa 0,0 mm 6,4 km/h (2 Bft) O 90 0 min 0 UV-I 0 W/m 19,3 km/h (3 Bft)
08.02.2010 02:40 -3,4 C 82 % 1017,6 hPa 0,0 mm 3,2 km/h (1 Bft) O-SO 112 0 min 0 UV-I 0 W/m 11,3 km/h (2 Bft)
08.02.2010 02:50 -3,6 C 81 % 1017,5 hPa 0,0 mm 6,4 km/h (2 Bft) O-SO 112 0 min 0 UV-I 0 W/m 17,7 km/h (3 Bft)
08.02.2010 03:00 -3,8 C 81 % 1017,4 hPa 0,0 mm 4,8 km/h (1 Bft) O 90 0 min 0 UV-I 0 W/m 16,1 km/h (3 Bft)
08.02.2010 03:10 -4,1 C 81 % 1017,3 hPa 0,0 mm 4,8 km/h (1 Bft) SO 135 0 min 0 UV-I 0 W/m 12,9 km/h (3 Bft)
08.02.2010 03:20 -4,2 C 81 % 1017,2 hPa 0,0 mm 6,4 km/h (2 Bft) O 90 0 min 0 UV-I 0 W/m 14,5 km/h (3 Bft)
08.02.2010 03:30 -4,4 C 81 % 1017,0 hPa 0,0 mm 6,4 km/h (2 Bft) O 90 0 min 0 UV-I 0 W/m 16,1 km/h (3 Bft)
08.02.2010 03:40 -4,5 C 81 % 1016,9 hPa 0,0 mm 4,8 km/h (1 Bft) O 90 0 min 0 UV-I 0 W/m 16,1 km/h (3 Bft)
08.02.2010 03:50 -4,6 C 82 % 1016,8 hPa 0,0 mm 4,8 km/h (1 Bft) O-SO 112 0 min 0 UV-I 0 W/m 17,7 km/h (3 Bft)
08.02.2010 04:00 -4,7 C 82 % 1016,6 hPa 0,0 mm 3,2 km/h (1 Bft) O-SO 112 0 min 0 UV-I 0 W/m 12,9 km/h (3 Bft)
08.02.2010 04:10 -4,7 C 82 % 1016,4 hPa 0,0 mm 3,2 km/h (1 Bft) SO 135 0 min 0 UV-I 0 W/m 16,1 km/h (3 Bft)
08.02.2010 04:20 -4,7 C 83 % 1016,3 hPa 0,0 mm 4,8 km/h (1 Bft) O 90 0 min 0 UV-I 0 W/m 14,5 km/h (3 Bft)
08.02.2010 04:30 -4,7 C 83 % 1016,1 hPa 0,0 mm 3,2 km/h (1 Bft) O 90 0 min 0 UV-I 0 W/m 12,9 km/h (3 Bft)
08.02.2010 04:40 -4,7 C 83 % 1016,0 hPa 0,0 mm 4,8 km/h (1 Bft) O-SO 112 0 min 0 UV-I 0 W/m 14,5 km/h (3 Bft)
08.02.2010 04:50 -4,8 C 83 % 1015,7 hPa 0,0 mm 4,8 km/h (1 Bft) O-SO 112 0 min 0 UV-I 0 W/m 12,9 km/h (3 Bft)
08.02.2010 05:00 -4,8 C 83 % 1015,7 hPa 0,0 mm 4,8 km/h (1 Bft) O-SO 112 0 min 0 UV-I 0 W/m 17,7 km/h (3 Bft)
08.02.2010 05:10 -4,8 C 83 % 1015,6 hPa 0,0 mm 4,8 km/h (1 Bft) O-SO 112 0 min 0 UV-I 0 W/m 19,3 km/h (3 Bft)
08.02.2010 05:20 -4,9 C 83 % 1015,4 hPa 0,0 mm 6,4 km/h (2 Bft) O 90 0 min 0 UV-I 0 W/m 17,7 km/h (3 Bft)
08.02.2010 05:30 -4,9 C 83 % 1015,3 hPa 0,0 mm 6,4 km/h (2 Bft) O-SO 112 0 min 0 UV-I 0 W/m 16,1 km/h (3 Bft)
08.02.2010 05:40 -4,9 C 84 % 1015,2 hPa 0,0 mm 6,4 km/h (2 Bft) O-SO 112 0 min 0 UV-I 0 W/m 16,1 km/h (3 Bft)
08.02.2010 05:50 -5,0 C 84 % 1015,1 hPa 0,0 mm 6,4 km/h (2 Bft) O-SO 112 0 min 0 UV-I 0 W/m 22,5 km/h (4 Bft)
08.02.2010 06:00 -5,0 C 84 % 1014,9 hPa 0,0 mm 6,4 km/h (2 Bft) O 90 0 min 0 UV-I 0 W/m 16,1 km/h (3 Bft)
08.02.2010 06:10 -5,0 C 84 % 1014,9 hPa 0,0 mm 3,2 km/h (1 Bft) O-SO 112 0 min 0 UV-I 0 W/m 14,5 km/h (3 Bft)
08.02.2010 06:20 -4,9 C 84 % 1014,9 hPa 0,0 mm 3,2 km/h (1 Bft) O-SO 112 0 min 0 UV-I 0 W/m 14,5 km/h (3 Bft)
08.02.2010 06:30 -4,9 C 84 % 1014,8 hPa 0,0 mm 4,8 km/h (1 Bft) O-SO 112 0 min 0 UV-I 0 W/m 14,5 km/h (3 Bft)
08.02.2010 06:40 -4,9 C 84 % 1014,7 hPa 0,0 mm 4,8 km/h (1 Bft) O-SO 112 0 min 0 UV-I 0 W/m 14,5 km/h (3 Bft)
08.02.2010 06:50 -4,8 C 84 % 1014,7 hPa 0,0 mm 4,8 km/h (1 Bft) O-SO 112 0 min 0 UV-I 0 W/m 17,7 km/h (3 Bft)
08.02.2010 07:00 -4,8 C 84 % 1014,6 hPa 0,0 mm 6,4 km/h (2 Bft) O 90 0 min 0 UV-I 0 W/m 19,3 km/h (3 Bft)
08.02.2010 07:10 -4,8 C 84 % 1014,5 hPa 0,0 mm 4,8 km/h (1 Bft) O 90 0 min 0 UV-I 0 W/m 14,5 km/h (3 Bft)
08.02.2010 07:20 -4,8 C 84 % 1014,4 hPa 0,0 mm 4,8 km/h (1 Bft) O-SO 112 0 min 0 UV-I 0 W/m 14,5 km/h (3 Bft)
08.02.2010 07:30 -4,8 C 84 % 1014,4 hPa 0,0 mm 6,4 km/h (2 Bft) O-SO 112 0 min 0 UV-I 0 W/m 17,7 km/h (3 Bft)
08.02.2010 07:40 -4,8 C 84 % 1014,4 hPa 0,0 mm 4,8 km/h (1 Bft) O 90 0 min 0 UV-I 0 W/m 14,5 km/h (3 Bft)
08.02.2010 07:50 -4,8 C 84 % 1014,3 hPa 0,0 mm 4,8 km/h (1 Bft) O 90 0 min 0 UV-I 0 W/m 14,5 km/h (3 Bft)
08.02.2010 08:00 -4,8 C 84 % 1014,3 hPa 0,0 mm 8,0 km/h (2 Bft) O-SO 112 0 min 0 UV-I 0 W/m 17,7 km/h (3 Bft)
08.02.2010 08:10 -4,8 C 84 % 1014,4 hPa 0,0 mm 8,0 km/h (2 Bft) O-SO 112 0 min 0 UV-I 0 W/m 19,3 km/h (3 Bft)
08.02.2010 08:20 -4,8 C 84 % 1014,3 hPa 0,0 mm 4,8 km/h (1 Bft) O-SO 112 0 min 0 UV-I 7 W/m 14,5 km/h (3 Bft)
08.02.2010 08:30 -4,7 C 84 % 1014,2 hPa 0,0 mm 6,4 km/h (2 Bft) O 90 0 min 0 UV-I 12 W/m 16,1 km/h (3 Bft)
08.02.2010 08:40 -4,7 C 84 % 1014,2 hPa 0,0 mm 4,8 km/h (1 Bft) O-SO 112 0 min 0 UV-I 14 W/m 14,5 km/h (3 Bft)
08.02.2010 08:50 -4,7 C 84 % 1014,1 hPa 0,0 mm 6,4 km/h (2 Bft) O-SO 112 0 min 0 UV-I 25 W/m 20,9 km/h (4 Bft)
08.02.2010 09:00 -4,7 C 84 % 1014,0 hPa 0,0 mm 6,4 km/h (2 Bft) O-SO 112 0 min 0 UV-I 32 W/m 20,9 km/h (4 Bft)
08.02.2010 09:10 -4,7 C 84 % 1014,0 hPa 0,0 mm 6,4 km/h (2 Bft) O-SO 112 0 min 0 UV-I 35 W/m 19,3 km/h (3 Bft)
08.02.2010 09:20 -4,7 C 84 % 1013,9 hPa 0,0 mm 6,4 km/h (2 Bft) O 90 0 min 0 UV-I 33 W/m 19,3 km/h (3 Bft)
08.02.2010 09:30 -4,6 C 84 % 1013,9 hPa 0,0 mm 4,8 km/h (1 Bft) O-SO 112 0 min 0 UV-I 54 W/m 20,9 km/h (4 Bft)
08.02.2010 09:40 -4,6 C 84 % 1013,7 hPa 0,0 mm 8,0 km/h (2 Bft) O-SO 112 0 min 0 UV-I 54 W/m 17,7 km/h (3 Bft)
08.02.2010 09:50 -4,5 C 83 % 1013,7 hPa 0,0 mm 6,4 km/h (2 Bft) O-SO 112 0 min 0 UV-I 53 W/m 19,3 km/h (3 Bft)
08.02.2010 10:00 -4,4 C 83 % 1013,7 hPa 0,0 mm 6,4 km/h (2 Bft) O-SO 112 0 min 0 UV-I 54 W/m 17,7 km/h (3 Bft)
08.02.2010 10:10 -4,3 C 83 % 1013,6 hPa 0,0 mm 6,4 km/h (2 Bft) O-SO 112 0 min 0 UV-I 54 W/m 19,3 km/h (3 Bft)
08.02.2010 10:20 -4,3 C 83 % 1013,5 hPa 0,0 mm 8,0 km/h (2 Bft) O-SO 112 0 min 0 UV-I 54 W/m 22,5 km/h (4 Bft)
08.02.2010 10:30 -4,2 C 83 % 1013,4 hPa 0,0 mm 6,4 km/h (2 Bft) O-SO 112 0 min 0 UV-I 63 W/m 16,1 km/h (3 Bft)
08.02.2010 10:40 -4,2 C 83 % 1013,4 hPa 0,0 mm 6,4 km/h (2 Bft) O-SO 112 0 min 0 UV-I 72 W/m 17,7 km/h (3 Bft)
08.02.2010 10:50 -4,1 C 83 % 1013,3 hPa 0,0 mm 4,8 km/h (1 Bft) SO 135 0 min 0 UV-I 74 W/m 16,1 km/h (3 Bft)
08.02.2010 11:00 -4,1 C 82 % 1013,3 hPa 0,0 mm 8,0 km/h (2 Bft) O-SO 112 0 min 0 UV-I 69 W/m 17,7 km/h (3 Bft)
08.02.2010 11:10 -3,9 C 82 % 1013,3 hPa 0,0 mm 4,8 km/h (1 Bft) O 90 0 min 0 UV-I 72 W/m 16,1 km/h (3 Bft)
08.02.2010 11:20 -3,8 C 82 % 1013,3 hPa 0,0 mm 6,4 km/h (2 Bft) O-SO 112 0 min 0 UV-I 81 W/m 14,5 km/h (3 Bft)
08.02.2010 11:30 -3,8 C 82 % 1013,2 hPa 0,0 mm 4,8 km/h (1 Bft) O 90 0 min 0 UV-I 77 W/m 17,7 km/h (3 Bft)
08.02.2010 11:40 -3,7 C 82 % 1013,1 hPa 0,0 mm 6,4 km/h (2 Bft) O 90 0 min 0 UV-I 79 W/m 19,3 km/h (3 Bft)
08.02.2010 11:50 -3,6 C 82 % 1013,0 hPa 0,0 mm 6,4 km/h (2 Bft) O 90 0 min 0 UV-I 95 W/m 16,1 km/h (3 Bft)
08.02.2010 12:00 -3,5 C 82 % 1012,8 hPa 0,0 mm 8,0 km/h (2 Bft) O-SO 112 0 min 0 UV-I 90 W/m 20,9 km/h (4 Bft)
08.02.2010 12:10 -3,4 C 82 % 1012,6 hPa 0,0 mm 6,4 km/h (2 Bft) O-SO 112 0 min 0 UV-I 84 W/m 17,7 km/h (3 Bft)
08.02.2010 12:20 -3,4 C 81 % 1012,5 hPa 0,0 mm 6,4 km/h (2 Bft) O-SO 112 0 min 1 UV-I 98 W/m 20,9 km/h (4 Bft)
08.02.2010 12:30 -3,3 C 82 % 1012,4 hPa 0,0 mm 4,8 km/h (1 Bft) O-SO 112 0 min 1 UV-I 109 W/m 16,1 km/h (3 Bft)
08.02.2010 12:40 -3,2 C 81 % 1012,2 hPa 0,0 mm 6,4 km/h (2 Bft) O-SO 112 0 min 1 UV-I 104 W/m 16,1 km/h (3 Bft)
08.02.2010 12:50 -3,2 C 81 % 1012,1 hPa 0,0 mm 6,4 km/h (2 Bft) O 90 0 min 1 UV-I 95 W/m 17,7 km/h (3 Bft)
08.02.2010 13:00 -3,1 C 81 % 1012,0 hPa 0,0 mm 6,4 km/h (2 Bft) O 90 0 min 1 UV-I 97 W/m 20,9 km/h (4 Bft)
08.02.2010 13:10 -3,1 C 80 % 1012,0 hPa 0,0 mm 8,0 km/h (2 Bft) O 90 0 min 1 UV-I 102 W/m 20,9 km/h (4 Bft)
08.02.2010 13:20 -3,0 C 80 % 1011,9 hPa 0,0 mm 6,4 km/h (2 Bft) O 90 0 min 1 UV-I 102 W/m 17,7 km/h (3 Bft)
08.02.2010 13:30 -2,9 C 80 % 1011,8 hPa 0,0 mm 6,4 km/h (2 Bft) O-SO 112 0 min 1 UV-I 102 W/m 19,3 km/h (3 Bft)
08.02.2010 13:40 -2,9 C 80 % 1011,7 hPa 0,0 mm 6,4 km/h (2 Bft) O-SO 112 0 min 1 UV-I 107 W/m 19,3 km/h (3 Bft)
08.02.2010 13:50 -2,8 C 79 % 1011,6 hPa 0,0 mm 6,4 km/h (2 Bft) O-SO 112 0 min 1 UV-I 104 W/m 16,1 km/h (3 Bft)
08.02.2010 14:00 -2,8 C 80 % 1011,5 hPa 0,0 mm 6,4 km/h (2 Bft) O 90 0 min 0 UV-I 90 W/m 17,7 km/h (3 Bft)
08.02.2010 14:10 -2,8 C 79 % 1011,4 hPa 0,0 mm 4,8 km/h (1 Bft) O-SO 112 0 min 0 UV-I 81 W/m 14,5 km/h (3 Bft)
08.02.2010 14:20 -2,7 C 79 % 1011,2 hPa 0,0 mm 6,4 km/h (2 Bft) O 90 0 min 0 UV-I 76 W/m 16,1 km/h (3 Bft)
08.02.2010 14:30 -2,7 C 79 % 1011,1 hPa 0,0 mm 4,8 km/h (1 Bft) O 90 0 min 0 UV-I 72 W/m 16,1 km/h (3 Bft)
08.02.2010 14:40 -2,7 C 79 % 1011,1 hPa 0,0 mm 4,8 km/h (1 Bft) O 90 0 min 0 UV-I 67 W/m 11,3 km/h (2 Bft)
08.02.2010 14:50 -2,8 C 79 % 1011,0 hPa 0,0 mm 6,4 km/h (2 Bft) O 90 0 min 0 UV-I 67 W/m 14,5 km/h (3 Bft)
08.02.2010 15:00 -2,8 C 79 % 1011,0 hPa 0,0 mm 6,4 km/h (2 Bft) O 90 0 min 0 UV-I 79 W/m 14,5 km/h (3 Bft)
08.02.2010 15:10 -2,8 C 79 % 1011,0 hPa 0,0 mm 6,4 km/h (2 Bft) O-SO 112 0 min 0 UV-I 76 W/m 16,1 km/h (3 Bft)
08.02.2010 15:20 -2,8 C 79 % 1010,9 hPa 0,0 mm 6,4 km/h (2 Bft) O-SO 112 0 min 0 UV-I 72 W/m 19,3 km/h (3 Bft)
08.02.2010 15:30 -2,8 C 78 % 1010,8 hPa 0,0 mm 6,4 km/h (2 Bft) O 90 0 min 0 UV-I 49 W/m 14,5 km/h (3 Bft)
08.02.2010 15:40 -2,8 C 78 % 1010,8 hPa 0,0 mm 4,8 km/h (1 Bft) O-SO 112 0 min 0 UV-I 46 W/m 16,1 km/h (3 Bft)
08.02.2010 15:50 -2,9 C 78 % 1010,7 hPa 0,0 mm 4,8 km/h (1 Bft) O-SO 112 0 min 0 UV-I 49 W/m 14,5 km/h (3 Bft)
08.02.2010 16:00 -2,9 C 78 % 1010,6 hPa 0,0 mm 6,9 km/h (2 Bft) O-SO 115 0 min 0 UV-I 53 W/m 11,3 km/h (2 Bft)
08.02.2010 16:10 -2,9 C 78 % 1010,6 hPa 0,0 mm 3,2 km/h (1 Bft) O-SO 112 0 min 0 UV-I 56 W/m 14,5 km/h (3 Bft)
08.02.2010 16:20 -2,9 C 78 % 1010,4 hPa 0,0 mm 6,4 km/h (2 Bft) O-SO 112 0 min 0 UV-I 60 W/m 16,1 km/h (3 Bft)
08.02.2010 16:30 -2,9 C 77 % 1010,4 hPa 0,0 mm 6,4 km/h (2 Bft) O-SO 112 0 min 0 UV-I 49 W/m 17,7 km/h (3 Bft)
08.02.2010 16:40 -2,9 C 77 % 1010,3 hPa 0,0 mm 4,8 km/h (1 Bft) O-SO 112 0 min 0 UV-I 47 W/m 12,9 km/h (3 Bft)
08.02.2010 16:50 -3,0 C 77 % 1010,2 hPa 0,0 mm 6,4 km/h (2 Bft) O-SO 112 0 min 0 UV-I 39 W/m 17,7 km/h (3 Bft)
08.02.2010 17:00 -3,1 C 77 % 1010,2 hPa 0,0 mm 4,8 km/h (1 Bft) O-SO 112 10 min 0 UV-I 32 W/m 14,5 km/h (3 Bft)
08.02.2010 17:10 -3,1 C 77 % 1010,2 hPa 0,0 mm 4,8 km/h (1 Bft) O 90 10 min 0 UV-I 21 W/m 17,7 km/h (3 Bft)
08.02.2010 17:20 -3,2 C 78 % 1010,2 hPa 0,0 mm 4,8 km/h (1 Bft) O 90 0 min 0 UV-I 9 W/m 11,3 km/h (2 Bft)
08.02.2010 17:30 -3,2 C 78 % 1010,0 hPa 0,0 mm 6,4 km/h (2 Bft) O 90 0 min 0 UV-I 0 W/m 17,7 km/h (3 Bft)
08.02.2010 17:40 -3,3 C 78 % 1010,0 hPa 0,0 mm 6,4 km/h (2 Bft) O 90 0 min 0 UV-I 0 W/m 16,1 km/h (3 Bft)
08.02.2010 17:50 -3,4 C 78 % 1009,9 hPa 0,0 mm 6,4 km/h (2 Bft) O-SO 112 0 min 0 UV-I 0 W/m 19,3 km/h (3 Bft)
08.02.2010 18:00 -3,4 C 78 % 1009,8 hPa 0,0 mm 3,2 km/h (1 Bft) O 90 0 min 0 UV-I 0 W/m 11,3 km/h (2 Bft)
08.02.2010 18:10 -3,5 C 79 % 1009,8 hPa 0,0 mm 4,8 km/h (1 Bft) O 90 0 min 0 UV-I 0 W/m 9,7 km/h (2 Bft)
08.02.2010 18:20 -3,5 C 79 % 1009,7 hPa 0,0 mm 6,4 km/h (2 Bft) O 90 0 min 0 UV-I 0 W/m 17,7 km/h (3 Bft)
08.02.2010 18:30 -3,6 C 79 % 1009,7 hPa 0,0 mm 6,4 km/h (2 Bft) O 90 0 min 0 UV-I 0 W/m 16,1 km/h (3 Bft)
08.02.2010 18:40 -3,7 C 79 % 1009,8 hPa 0,0 mm 6,4 km/h (2 Bft) O 90 0 min 0 UV-I 0 W/m 16,1 km/h (3 Bft)
08.02.2010 18:50 -3,7 C 79 % 1009,7 hPa 0,0 mm 6,4 km/h (2 Bft) O 90 0 min 0 UV-I 0 W/m 17,7 km/h (3 Bft)
08.02.2010 19:00 -3,8 C 79 % 1009,7 hPa 0,0 mm 6,4 km/h (2 Bft) O 90 0 min 0 UV-I 0 W/m 17,7 km/h (3 Bft)
08.02.2010 19:10 -3,8 C 79 % 1009,7 hPa 0,0 mm 6,4 km/h (2 Bft) O 90 0 min 0 UV-I 0 W/m 16,1 km/h (3 Bft)
08.02.2010 19:20 -3,9 C 79 % 1009,7 hPa 0,0 mm 8,0 km/h (2 Bft) O 90 0 min 0 UV-I 0 W/m 17,7 km/h (3 Bft)
08.02.2010 19:30 -4,0 C 79 % 1009,5 hPa 0,0 mm 8,0 km/h (2 Bft) O-SO 112 0 min 0 UV-I 0 W/m 19,3 km/h (3 Bft)
08.02.2010 19:40 -4,1 C 79 % 1009,5 hPa 0,0 mm 6,4 km/h (2 Bft) O-SO 112 0 min 0 UV-I 0 W/m 17,7 km/h (3 Bft)
08.02.2010 19:50 -4,2 C 79 % 1009,5 hPa 0,0 mm 6,4 km/h (2 Bft) O-SO 112 0 min 0 UV-I 0 W/m 14,5 km/h (3 Bft)
08.02.2010 20:00 -4,2 C 79 % 1009,5 hPa 0,0 mm 6,4 km/h (2 Bft) O 90 0 min 0 UV-I 0 W/m 16,1 km/h (3 Bft)
08.02.2010 20:10 -4,3 C 79 % 1009,5 hPa 0,0 mm 8,0 km/h (2 Bft) O-SO 112 0 min 0 UV-I 0 W/m 22,5 km/h (4 Bft)
08.02.2010 20:20 -4,4 C 78 % 1009,5 hPa 0,0 mm 9,7 km/h (2 Bft) O-SO 112 0 min 0 UV-I 0 W/m 20,9 km/h (4 Bft)
08.02.2010 20:30 -4,4 C 78 % 1009,4 hPa 0,0 mm 6,4 km/h (2 Bft) O 90 0 min 0 UV-I 0 W/m 19,3 km/h (3 Bft)
08.02.2010 20:40 -4,5 C 78 % 1009,3 hPa 0,0 mm 6,4 km/h (2 Bft) O-SO 112 0 min 0 UV-I 0 W/m 19,3 km/h (3 Bft)
08.02.2010 20:50 -4,6 C 78 % 1009,3 hPa 0,0 mm 6,4 km/h (2 Bft) O-SO 112 0 min 0 UV-I 0 W/m 17,7 km/h (3 Bft)
08.02.2010 21:00 -4,6 C 78 % 1009,3 hPa 0,0 mm 8,0 km/h (2 Bft) O 90 0 min 0 UV-I 0 W/m 19,3 km/h (3 Bft)
08.02.2010 21:10 -4,7 C 78 % 1009,4 hPa 0,0 mm 4,8 km/h (1 Bft) O-SO 112 0 min 0 UV-I 0 W/m 22,5 km/h (4 Bft)
08.02.2010 21:20 -4,8 C 78 % 1009,4 hPa 0,0 mm 8,0 km/h (2 Bft) O 90 0 min 0 UV-I 0 W/m 19,3 km/h (3 Bft)
08.02.2010 21:30 -4,8 C 79 % 1009,3 hPa 0,0 mm 6,4 km/h (2 Bft) O 90 0 min 0 UV-I 0 W/m 17,7 km/h (3 Bft)
08.02.2010 21:40 -4,9 C 79 % 1009,3 hPa 0,0 mm 6,4 km/h (2 Bft) O 90 0 min 0 UV-I 0 W/m 16,1 km/h (3 Bft)
08.02.2010 21:50 -4,9 C 79 % 1009,3 hPa 0,0 mm 6,4 km/h (2 Bft) O-SO 112 0 min 0 UV-I 0 W/m 16,1 km/h (3 Bft)
08.02.2010 22:00 -4,9 C 79 % 1009,3 hPa 0,0 mm 6,4 km/h (2 Bft) O 90 0 min 0 UV-I 0 W/m 17,7 km/h (3 Bft)
08.02.2010 22:10 -4,8 C 80 % 1009,1 hPa 0,0 mm 6,7 km/h (2 Bft) O 95 0 min 0 UV-I 0 W/m 9,7 km/h (2 Bft)
08.02.2010 22:20 -4,8 C 80 % 1009,0 hPa 0,0 mm 4,2 km/h (1 Bft) O-SO 123 0 min 0 UV-I 0 W/m 12,9 km/h (3 Bft)
08.02.2010 22:30 -4,8 C 80 % 1008,9 hPa 0,0 mm 6,8 km/h (2 Bft) O 100 0 min 0 UV-I 0 W/m 16,1 km/h (3 Bft)
08.02.2010 22:40 -4,8 C 81 % 1009,0 hPa 0,0 mm 6,0 km/h (2 Bft) O 96 0 min 0 UV-I 0 W/m 14,5 km/h (3 Bft)
08.02.2010 22:50 -4,7 C 81 % 1009,0 hPa 0,0 mm 7,2 km/h (2 Bft) O-SO 103 0 min 0 UV-I 0 W/m 19,3 km/h (3 Bft)
08.02.2010 23:00 -4,7 C 81 % 1008,9 hPa 0,0 mm 8,0 km/h (2 Bft) O 90 0 min 0 UV-I 0 W/m 19,3 km/h (3 Bft)
08.02.2010 23:10 -4,7 C 81 % 1008,8 hPa 0,0 mm 6,4 km/h (2 Bft) O-SO 112 0 min 0 UV-I 0 W/m 17,7 km/h (3 Bft)
08.02.2010 23:20 -4,7 C 81 % 1008,8 hPa 0,0 mm 6,4 km/h (2 Bft) O-SO 112 0 min 0 UV-I 0 W/m 16,1 km/h (3 Bft)
08.02.2010 23:30 -4,7 C 81 % 1008,7 hPa 0,0 mm 6,4 km/h (2 Bft) O 90 0 min 0 UV-I 0 W/m 16,1 km/h (3 Bft)
08.02.2010 23:40 -4,7 C 81 % 1008,7 hPa 0,0 mm 6,4 km/h (2 Bft) O 90 0 min 0 UV-I 0 W/m 16,1 km/h (3 Bft)
08.02.2010 23:50 -4,7 C 81 % 1008,7 hPa 0,0 mm 6,4 km/h (2 Bft) O 90 0 min 0 UV-I 0 W/m 16,1 km/h (3 Bft)
_ Min-Zeit 05:40 16:30 23:30 - 00:20 - - - - - 02:00
Minimum _ -5,0 C 77 % 1008,7 hPa - 3,2 km/h (1 Bft) - - - - - 8,0 km/h (2 Bft)
_ Max-Zeit 00:00 00:00 00:00 00:00 20:20 - - 17:00 12:20 12:30 05:50
Maximum _ -2,1 C 84 % 1018,0 hPa 0,0 mm 9,7 km/h
O-SO (2 Bft)
- - 10 min 1 UV-I 109 W/m 22,5 km/h
O-SO (4 Bft)
Durchschnitt _ -3,9 C 81 % 1012,9 hPa #0,0 mm 5,8 km/h (2 Bft) O-SO - #20 min. 1 UV-I 64 W/m 16,3 km/h (3 Bft)